Time;durP1;ratioP1;P1;durP2;ratioP2;P2;SDS_P1;SDS_P2;PMS_P1;PMS_P2;Temp;Humidity;BMP_temperature;BMP_pressure;BME280_temperature;BME280_humidity;BME280_pressure;Samples;Min_cycle;Max_cycle;Signal;HPM_P1;HPM_P2
2024/02/17 00:00:04;;;;;;;77.75;32.55;;;;;;;;;;6158509;23;19998;-94
2024/02/17 00:02:31;;;;;;;61.50;30.60;;;;;;;;;;6156703;23;20017;-92
2024/02/17 00:04:57;;;;;;;75.88;34.30;;;;;;;;;;6159651;23;20001;-94
2024/02/17 00:07:23;;;;;;;80.00;35.13;;;;;;;;;;6157926;23;20005;-94
2024/02/17 00:09:49;;;;;;;75.22;34.45;;;;;;;;;;6157619;23;20016;-93
2024/02/17 00:12:15;;;;;;;67.75;33.08;;;;;;;;;;6157331;23;20016;-93
2024/02/17 00:14:41;;;;;;;64.32;31.63;;;;;;;;;;6157458;23;20005;-93
2024/02/17 00:17:09;;;;;;;72.32;33.72;;;;;;;;;;6158076;23;20029;-94
2024/02/17 00:19:35;;;;;;;66.75;31.30;;;;;;;;;;6157278;23;20002;-92
2024/02/17 00:22:01;;;;;;;57.17;29.88;;;;;;;;;;6157384;23;20005;-93
2024/02/17 00:24:28;;;;;;;62.60;31.45;;;;;;;;;;6157130;23;20016;-95
2024/02/17 00:26:54;;;;;;;58.45;29.52;;;;;;;;;;6157459;23;20036;-94
2024/02/17 00:29:20;;;;;;;66.82;30.45;;;;;;;;;;6156894;23;20424;-94
2024/02/17 00:31:49;;;;;;;42.60;24.25;;;;;;;;;;6157436;23;20037;-94
2024/02/17 00:34:18;;;;;;;64.45;30.25;;;;;;;;;;6157576;23;20015;-95
2024/02/17 00:36:44;;;;;;;52.15;28.75;;;;;;;;;;6157551;23;20052;-94
2024/02/17 00:39:10;;;;;;;53.10;27.92;;;;;;;;;;6157489;23;20002;-95
2024/02/17 00:41:38;;;;;;;60.72;29.75;;;;;;;;;;6158254;23;20016;-93
2024/02/17 00:44:04;;;;;;;66.47;32.28;;;;;;;;;;6140925;23;20016;-94
2024/02/17 00:46:30;;;;;;;70.78;33.80;;;;;;;;;;6156742;23;20001;-92
2024/02/17 00:48:56;;;;;;;66.43;31.88;;;;;;;;;;6158144;23;20305;-93
2024/02/17 00:51:24;;;;;;;67.63;33.35;;;;;;;;;;6158173;23;20012;-93
2024/02/17 00:53:50;;;;;;;68.50;34.15;;;;;;;;;;6157343;23;20009;-93
2024/02/17 00:56:21;;;;;;;69.57;33.83;;;;;;;;;;6161961;23;20010;-94
2024/02/17 00:58:47;;;;;;;65.97;32.60;;;;;;;;;;6183148;23;20001;-93
2024/02/17 01:01:13;;;;;;;86.47;36.28;;;;;;;;;;6177522;23;20016;-95
2024/02/17 01:03:40;;;;;;;69.57;34.05;;;;;;;;;;6157379;23;20021;-93
2024/02/17 01:06:10;;;;;;;64.70;31.90;;;;;;;;;;6133605;23;20494;-94
2024/02/17 01:08:37;;;;;;;69.13;33.70;;;;;;;;;;6131997;23;20112;-93
2024/02/17 01:11:03;;;;;;;71.47;34.67;;;;;;;;;;6156445;23;20012;-94
2024/02/17 01:13:29;;;;;;;76.30;34.95;;;;;;;;;;6155570;23;20047;-93
2024/02/17 01:15:57;;;;;;;69.85;34.53;;;;;;;;;;6155441;23;20014;-94
2024/02/17 01:18:25;;;;;;;81.25;35.85;;;;;;;;;;6156111;23;20025;-94
2024/02/17 01:20:51;;;;;;;85.68;36.63;;;;;;;;;;6156153;23;20431;-93
2024/02/17 01:23:17;;;;;;;83.25;37.13;;;;;;;;;;6156612;23;20029;-94
2024/02/17 01:25:43;;;;;;;91.32;38.80;;;;;;;;;;6156510;23;20401;-95
2024/02/17 01:28:09;;;;;;;97.32;40.50;;;;;;;;;;6155792;23;20053;-96
2024/02/17 01:30:35;;;;;;;79.55;35.42;;;;;;;;;;6155685;23;20028;-95
2024/02/17 01:33:02;;;;;;;81.30;37.03;;;;;;;;;;6155218;23;20008;-95
2024/02/17 01:35:28;;;;;;;55.10;30.83;;;;;;;;;;6156516;23;20018;-94
2024/02/17 01:37:54;;;;;;;69.13;34.15;;;;;;;;;;6155848;23;20001;-94
2024/02/17 01:40:20;;;;;;;73.43;36.63;;;;;;;;;;6155692;23;20402;-95
2024/02/17 01:42:46;;;;;;;103.18;43.65;;;;;;;;;;6155968;23;20008;-95
2024/02/17 01:45:12;;;;;;;160.52;58.33;;;;;;;;;;6155842;23;20065;-93
2024/02/17 01:47:38;;;;;;;123.30;48.28;;;;;;;;;;6155970;23;20002;-95
2024/02/17 01:50:05;;;;;;;91.18;39.25;;;;;;;;;;6155541;23;20041;-96
2024/02/17 01:52:32;;;;;;;98.18;42.72;;;;;;;;;;6156029;23;20009;-95
2024/02/17 01:54:59;;;;;;;82.40;35.83;;;;;;;;;;6156041;23;20056;-95
2024/02/17 01:57:25;;;;;;;69.85;34.08;;;;;;;;;;6155699;23;20088;-95
2024/02/17 01:59:53;;;;;;;70.88;33.22;;;;;;;;;;6155760;23;20012;-95
2024/02/17 02:02:19;;;;;;;73.43;34.50;;;;;;;;;;6158306;23;20039;-94
2024/02/17 02:04:46;;;;;;;65.78;32.65;;;;;;;;;;6160285;23;20005;-95
2024/02/17 02:07:12;;;;;;;86.07;38.15;;;;;;;;;;6160825;23;20084;-95
2024/02/17 02:09:40;;;;;;;70.53;32.92;;;;;;;;;;6160928;23;19997;-93
2024/02/17 02:12:06;;;;;;;93.70;40.45;;;;;;;;;;6162546;23;20453;-96
2024/02/17 02:14:32;;;;;;;121.65;46.20;;;;;;;;;;6162820;23;20009;-96
2024/02/17 02:16:59;;;;;;;80.70;37.53;;;;;;;;;;6163109;23;20008;-95
2024/02/17 02:19:25;;;;;;;83.88;37.35;;;;;;;;;;6163209;23;20008;-96
2024/02/17 02:21:52;;;;;;;84.60;37.75;;;;;;;;;;6162636;23;20005;-95
2024/02/17 02:24:18;;;;;;;90.03;38.13;;;;;;;;;;6162674;23;20012;-94
2024/02/17 02:26:44;;;;;;;83.72;39.17;;;;;;;;;;6162762;23;20054;-95
2024/02/17 02:29:10;;;;;;;111.20;44.55;;;;;;;;;;6162682;23;20005;-95
2024/02/17 02:31:36;;;;;;;89.32;40.08;;;;;;;;;;6162963;23;20008;-96
2024/02/17 02:34:02;;;;;;;89.18;40.20;;;;;;;;;;6162682;23;20005;-93
2024/02/17 02:36:28;;;;;;;65.63;32.20;;;;;;;;;;6162689;23;20020;-94
2024/02/17 02:38:56;;;;;;;80.28;36.55;;;;;;;;;;6163330;23;20079;-95
2024/02/17 02:41:22;;;;;;;86.93;37.75;;;;;;;;;;6163159;23;20029;-95
2024/02/17 02:43:49;;;;;;;101.15;42.38;;;;;;;;;;6180374;23;19993;-94
2024/02/17 02:46:15;;;;;;;99.20;41.88;;;;;;;;;;6189449;23;19993;-93
2024/02/17 02:48:41;;;;;;;96.10;40.70;;;;;;;;;;6170765;23;20012;-96
2024/02/17 02:51:08;;;;;;;104.20;42.38;;;;;;;;;;6162607;23;20394;-95
2024/02/17 02:53:34;;;;;;;89.43;38.88;;;;;;;;;;6162525;23;20084;-94
2024/02/17 02:56:01;;;;;;;100.88;46.10;;;;;;;;;;6162437;23;20017;-94
2024/02/17 02:58:27;;;;;;;88.03;39.78;;;;;;;;;;6161797;23;20012;-94
2024/02/17 03:00:53;;;;;;;83.20;38.33;;;;;;;;;;6162527;23;20005;-95
2024/02/17 03:03:19;;;;;;;76.72;37.33;;;;;;;;;;6162058;23;20024;-95
2024/02/17 03:05:47;;;;;;;58.30;30.60;;;;;;;;;;6161834;23;20103;-95
2024/02/17 03:08:13;;;;;;;76.57;34.33;;;;;;;;;;6162202;23;20431;-95
2024/02/17 03:10:39;;;;;;;64.53;30.27;;;;;;;;;;6162035;23;20023;-95
2024/02/17 03:13:05;;;;;;;72.15;32.08;;;;;;;;;;6162308;23;20001;-95
2024/02/17 03:15:31;;;;;;;85.72;42.25;;;;;;;;;;6162463;23;20075;-96
2024/02/17 03:17:58;;;;;;;55.75;27.65;;;;;;;;;;6162456;23;20428;-95
2024/02/17 03:20:24;;;;;;;60.17;32.45;;;;;;;;;;6161482;23;20435;-94
2024/02/17 03:22:50;;;;;;;88.10;41.70;;;;;;;;;;6161830;23;20023;-95
2024/02/17 03:25:16;;;;;;;74.93;37.03;;;;;;;;;;6161815;23;20305;-93
2024/02/17 03:27:42;;;;;;;86.07;38.17;;;;;;;;;;6161852;23;20497;-94
2024/02/17 03:30:09;;;;;;;85.28;37.38;;;;;;;;;;6162209;23;20004;-94
2024/02/17 03:32:35;;;;;;;59.05;31.10;;;;;;;;;;6162663;23;20021;-95
2024/02/17 03:35:05;;;;;;;69.35;33.38;;;;;;;;;;6162026;23;20320;-92
2024/02/17 03:37:31;;;;;;;62.58;30.45;;;;;;;;;;6162164;23;20352;-94
2024/02/17 03:39:58;;;;;;;65.55;31.15;;;;;;;;;;6162091;23;20442;-96
2024/02/17 03:42:24;;;;;;;80.88;35.45;;;;;;;;;;6162208;23;20120;-96
2024/02/17 03:44:50;;;;;;;77.57;35.67;;;;;;;;;;6161981;23;20001;-94
2024/02/17 03:47:17;;;;;;;78.07;35.60;;;;;;;;;;6161814;23;20009;-94
2024/02/17 03:49:43;;;;;;;77.65;37.92;;;;;;;;;;6161794;23;20449;-93
2024/02/17 03:52:09;;;;;;;81.38;35.25;;;;;;;;;;6162375;23;20013;-93
2024/02/17 03:54:35;;;;;;;63.25;31.35;;;;;;;;;;6161917;23;20001;-94
2024/02/17 03:57:02;;;;;;;69.47;33.25;;;;;;;;;;6161821;23;20016;-94
2024/02/17 03:59:29;;;;;;;73.47;32.95;;;;;;;;;;6162184;23;20005;-95
2024/02/17 04:01:56;;;;;;;73.45;33.63;;;;;;;;;;6161615;23;20005;-93
2024/02/17 04:04:22;;;;;;;75.45;34.75;;;;;;;;;;6161128;23;20044;-95
2024/02/17 04:06:49;;;;;;;80.68;35.25;;;;;;;;;;6161518;23;20840;-94
2024/02/17 04:09:15;;;;;;;85.57;34.97;;;;;;;;;;6161218;23;20253;-94
2024/02/17 04:11:41;;;;;;;78.05;34.92;;;;;;;;;;6161391;23;20012;-92
2024/02/17 04:14:07;;;;;;;71.75;32.45;;;;;;;;;;6161434;23;20036;-95
2024/02/17 04:16:33;;;;;;;81.35;33.97;;;;;;;;;;6160931;23;20018;-94
2024/02/17 04:19:00;;;;;;;60.88;31.05;;;;;;;;;;6161175;23;20366;-94
2024/02/17 04:21:26;;;;;;;62.72;30.25;;;;;;;;;;6161627;23;20005;-95
2024/02/17 04:23:52;;;;;;;69.35;32.78;;;;;;;;;;6161703;23;20001;-93
2024/02/17 04:26:18;;;;;;;81.15;33.17;;;;;;;;;;6161749;23;20012;-95
2024/02/17 04:28:46;;;;;;;77.13;33.53;;;;;;;;;;6162019;23;20005;-94
2024/02/17 04:31:12;;;;;;;67.65;31.30;;;;;;;;;;6180825;23;20013;-94
2024/02/17 04:33:39;;;;;;;56.35;28.02;;;;;;;;;;6188266;23;20012;-94
2024/02/17 04:36:09;;;;;;;67.10;30.17;;;;;;;;;;6168529;23;20016;-95
2024/02/17 04:38:35;;;;;;;71.95;31.88;;;;;;;;;;6161013;23;20012;-94
2024/02/17 04:41:02;;;;;;;70.72;30.52;;;;;;;;;;6160553;23;20009;-95
2024/02/17 04:43:28;;;;;;;72.25;31.80;;;;;;;;;;6161274;23;20039;-94
2024/02/17 04:45:55;;;;;;;80.18;33.92;;;;;;;;;;6161324;23;20060;-93
2024/02/17 04:48:21;;;;;;;56.75;28.73;;;;;;;;;;6160948;23;20060;-93
2024/02/17 04:50:47;;;;;;;80.25;33.83;;;;;;;;;;6161156;23;20088;-94
2024/02/17 04:53:13;;;;;;;78.88;33.08;;;;;;;;;;6160510;23;20028;-94
2024/02/17 04:55:39;;;;;;;79.18;32.58;;;;;;;;;;6160941;23;20016;-93
2024/02/17 04:58:08;;;;;;;49.88;26.13;;;;;;;;;;6160689;23;20088;-92
2024/02/17 05:00:35;;;;;;;67.85;30.08;;;;;;;;;;6161133;23;20016;-94
2024/02/17 05:03:02;;;;;;;79.10;32.80;;;;;;;;;;6155792;23;20041;-94
2024/02/17 05:05:28;;;;;;;53.63;25.75;;;;;;;;;;6155647;23;20087;-94
2024/02/17 05:07:54;;;;;;;66.70;31.02;;;;;;;;;;6156030;23;20024;-94
2024/02/17 05:10:21;;;;;;;69.75;31.48;;;;;;;;;;6155431;23;20037;-92
2024/02/17 05:12:48;;;;;;;75.10;31.85;;;;;;;;;;6155537;23;20053;-92
2024/02/17 05:15:14;;;;;;;78.10;34.63;;;;;;;;;;6155752;23;20013;-93
2024/02/17 05:17:42;;;;;;;75.57;33.67;;;;;;;;;;6155673;23;20005;-93
2024/02/17 05:20:09;;;;;;;77.00;32.83;;;;;;;;;;6155877;23;20393;-92
2024/02/17 05:22:36;;;;;;;68.18;31.10;;;;;;;;;;6156851;23;20025;-93
2024/02/17 05:25:02;;;;;;;58.92;29.13;;;;;;;;;;6155704;23;20092;-92
2024/02/17 05:27:28;;;;;;;59.08;29.05;;;;;;;;;;6155415;23;20008;-93
2024/02/17 05:29:54;;;;;;;61.53;28.80;;;;;;;;;;6155476;23;20010;-92
2024/02/17 05:32:20;;;;;;;61.33;28.92;;;;;;;;;;6155251;23;20012;-94
2024/02/17 05:34:46;;;;;;;61.70;28.17;;;;;;;;;;6156041;23;20124;-95
2024/02/17 05:37:12;;;;;;;55.35;29.83;;;;;;;;;;6156106;23;20013;-94
2024/02/17 05:39:39;;;;;;;71.70;31.83;;;;;;;;;;6156193;23;20012;-94
2024/02/17 05:42:05;;;;;;;69.05;31.75;;;;;;;;;;6155874;23;20037;-95
2024/02/17 05:44:31;;;;;;;79.53;32.45;;;;;;;;;;6155584;23;20006;-93
2024/02/17 05:46:57;;;;;;;67.55;31.25;;;;;;;;;;6158096;23;20090;-93
2024/02/17 05:49:23;;;;;;;62.67;30.27;;;;;;;;;;6158514;23;20048;-96
2024/02/17 05:51:50;;;;;;;51.90;27.33;;;;;;;;;;6158744;23;20013;-95
2024/02/17 05:54:19;;;;;;;67.28;30.52;;;;;;;;;;6158588;23;20017;-95
2024/02/17 05:56:54;;;;;;;67.13;30.92;;;;;;;;;;6159134;23;20013;-90
2024/02/17 05:59:20;;;;;;;71.93;32.35;;;;;;;;;;6157929;23;20005;-93
2024/02/17 06:01:46;;;;;;;61.17;29.42;;;;;;;;;;6157263;23;20045;-92
2024/02/17 06:04:13;;;;;;;82.55;33.90;;;;;;;;;;6157370;23;20092;-93
2024/02/17 06:06:40;;;;;;;76.88;32.58;;;;;;;;;;6157332;23;20012;-93
2024/02/17 06:09:06;;;;;;;83.60;34.75;;;;;;;;;;6158234;23;20012;-93
2024/02/17 06:11:32;;;;;;;82.32;33.40;;;;;;;;;;6158127;23;20427;-94
2024/02/17 06:13:58;;;;;;;82.95;33.55;;;;;;;;;;6158637;23;20060;-92
2024/02/17 06:16:27;;;;;;;64.25;30.58;;;;;;;;;;6159011;23;20025;-94
2024/02/17 06:21:37;;;;;;;62.45;30.40;;;;;;;;;;6185262;23;20028;-93
2024/02/17 06:24:03;;;;;;;69.22;34.38;;;;;;;;;;6161945;23;20025;-94
2024/02/17 06:26:31;;;;;;;70.45;32.13;;;;;;;;;;6157549;23;20035;-94
2024/02/17 06:28:58;;;;;;;55.70;29.88;;;;;;;;;;6156976;23;20335;-93
2024/02/17 06:31:24;;;;;;;47.17;27.40;;;;;;;;;;6157651;23;20005;-94
2024/02/17 06:33:54;;;;;;;47.78;25.63;;;;;;;;;;6157124;23;20116;-93
2024/02/17 06:36:42;;;;;;;39.83;23.75;;;;;;;;;;6158658;23;20017;-92
2024/02/17 06:39:12;;;;;;;38.33;22.95;;;;;;;;;;6157654;23;20001;-93
2024/02/17 06:41:38;;;;;;;37.97;22.63;;;;;;;;;;6156909;23;20005;-95
2024/02/17 06:44:04;;;;;;;39.25;23.48;;;;;;;;;;6157221;23;20021;-94
2024/02/17 06:46:30;;;;;;;40.70;23.38;;;;;;;;;;6157448;23;20009;-96
2024/02/17 06:48:57;;;;;;;35.85;23.50;;;;;;;;;;6157270;23;20045;-94
2024/02/17 06:51:23;;;;;;;37.20;23.95;;;;;;;;;;6157380;23;20006;-94
2024/02/17 06:53:49;;;;;;;35.50;23.27;;;;;;;;;;6157447;23;20010;-95
2024/02/17 06:56:16;;;;;;;32.25;21.52;;;;;;;;;;6156605;23;20068;-93
2024/02/17 06:58:42;;;;;;;36.20;22.17;;;;;;;;;;6156513;23;20088;-93
2024/02/17 07:01:09;;;;;;;30.10;18.33;;;;;;;;;;6156886;23;20048;-92
2024/02/17 07:03:35;;;;;;;26.05;18.92;;;;;;;;;;6156815;23;20021;-94
2024/02/17 07:06:01;;;;;;;30.17;22.17;;;;;;;;;;6157264;23;20001;-95
2024/02/17 07:08:28;;;;;;;36.78;23.88;;;;;;;;;;6156784;23;20025;-95
2024/02/17 07:10:54;;;;;;;32.25;21.63;;;;;;;;;;6157105;23;20006;-93
2024/02/17 07:13:20;;;;;;;36.25;24.73;;;;;;;;;;6157345;23;20005;-95
2024/02/17 07:15:46;;;;;;;36.78;26.20;;;;;;;;;;6157149;23;20071;-93
2024/02/17 07:18:14;;;;;;;42.78;27.50;;;;;;;;;;6157992;23;20087;-93
2024/02/17 07:20:41;;;;;;;38.15;23.90;;;;;;;;;;6157501;23;20009;-95
2024/02/17 07:23:07;;;;;;;36.63;24.20;;;;;;;;;;6156792;23;20080;-96
2024/02/17 07:25:35;;;;;;;30.42;21.23;;;;;;;;;;6157171;23;20088;-95
2024/02/17 07:28:02;;;;;;;34.67;21.90;;;;;;;;;;6156604;23;20021;-94
2024/02/17 07:30:29;;;;;;;33.90;25.77;;;;;;;;;;6156752;23;20014;-95
2024/02/17 07:32:56;;;;;;;35.42;25.48;;;;;;;;;;6157242;23;20089;-95
2024/02/17 07:35:23;;;;;;;39.85;35.70;;;;;;;;;;6157561;23;20439;-95
2024/02/17 07:37:55;;;;;;;33.20;25.38;;;;;;;;;;6132956;23;20014;-95
2024/02/17 07:40:27;;;;;;;33.47;29.65;;;;;;;;;;6159246;23;20005;-95
2024/02/17 07:42:54;;;;;;;29.60;25.92;;;;;;;;;;6162636;23;20009;-95
2024/02/17 07:45:26;;;;;;;25.30;21.52;;;;;;;;;;6162362;23;20001;-95
2024/02/17 07:47:53;;;;;;;24.70;19.80;;;;;;;;;;6160887;23;20394;-94
2024/02/17 07:50:20;;;;;;;23.17;20.23;;;;;;;;;;6158472;23;20078;-93
2024/02/17 07:52:46;;;;;;;31.83;28.50;;;;;;;;;;6156879;23;20089;-95
2024/02/17 07:55:12;;;;;;;27.92;21.48;;;;;;;;;;6156889;23;20093;-95
2024/02/17 07:57:38;;;;;;;28.30;23.70;;;;;;;;;;6157603;23;20013;-95
2024/02/17 08:00:05;;;;;;;42.75;38.67;;;;;;;;;;6158288;23;20006;-96
2024/02/17 08:02:31;;;;;;;44.15;40.25;;;;;;;;;;6160475;23;20343;-96
2024/02/17 08:04:57;;;;;;;31.35;26.05;;;;;;;;;;6159139;23;20010;-96
2024/02/17 08:07:23;;;;;;;33.20;29.70;;;;;;;;;;6176865;23;20018;-96
2024/02/17 08:09:50;;;;;;;29.60;22.23;;;;;;;;;;6183392;23;20008;-95
2024/02/17 08:12:16;;;;;;;30.15;23.23;;;;;;;;;;6167122;23;20427;-95
2024/02/17 08:14:42;;;;;;;30.92;23.27;;;;;;;;;;6161990;23;20013;-94
2024/02/17 08:17:08;;;;;;;33.00;29.48;;;;;;;;;;6157368;23;20009;-96
2024/02/17 08:19:35;;;;;;;34.28;21.67;;;;;;;;;;6156123;23;20006;-95
2024/02/17 08:22:02;;;;;;;29.50;22.55;;;;;;;;;;6157742;23;20005;-92
2024/02/17 08:24:29;;;;;;;33.28;22.30;;;;;;;;;;6158810;23;20101;-96
2024/02/17 08:26:55;;;;;;;29.50;20.42;;;;;;;;;;6160412;23;20010;-95
2024/02/17 08:29:21;;;;;;;25.23;19.85;;;;;;;;;;6134865;23;19994;-96
2024/02/17 08:31:51;;;;;;;25.25;18.90;;;;;;;;;;6160060;23;20343;-96
2024/02/17 08:34:17;;;;;;;31.05;19.20;;;;;;;;;;6158754;23;20775;-93
2024/02/17 08:36:43;;;;;;;27.13;20.52;;;;;;;;;;6158153;23;20017;-94
2024/02/17 08:39:09;;;;;;;31.17;22.98;;;;;;;;;;6158343;23;20009;-95
2024/02/17 08:41:38;;;;;;;30.48;24.48;;;;;;;;;;6158118;23;20006;-96
2024/02/17 08:44:07;;;;;;;27.55;19.98;;;;;;;;;;6157764;23;20010;-95
2024/02/17 08:46:35;;;;;;;32.65;20.50;;;;;;;;;;6165380;23;20020;-96
2024/02/17 08:49:05;;;;;;;36.83;23.42;;;;;;;;;;6165930;23;20005;-96
